Attica, Kansas
Current Conditions -  °F | °C
As of 9:15 AM on Sunday 21 Dec 2014 (Local Time) from KAVK Reporting Station
Haze Haze  
Wind Chill: 35°   Ceiling: 700
Heat Index: 41°   Visibility: 5mi
Dew Point: 41°   Wind: 10mph
Humidity: 100%   Direction: 160°SSE
Pressure: 29.93"   Gusts: NA
Location:  37.24°N, 98.23°W
Report Text: KAVK 211515Z AUTO 16009KT 5SM BR OVC007 05/05 A2993 RMK AO2
Loading
Personal Weather Stations






























Interactive Weather Map New forecast layout! Learn more

10-Day Weather Forecast

Advertisements
Track Severe Weather on mobile